Time;durP1;ratioP1;P1;durP2;ratioP2;P2;SDS_P1;SDS_P2;PMS_P1;PMS_P2;Temp;Humidity;BMP_temperature;BMP_pressure;BME280_temperature;BME280_humidity;BME280_pressure;Samples;Min_cycle;Max_cycle;Signal;HPM_P1;HPM_P2
2022/07/07 00:02:15;;;;;;;6.00;3.63;;;;;;;;;;4997672;28;20205;-77
2022/07/07 00:04:44;;;;;;;6.40;4.00;;;;;;;;;;4995280;28;20237;-74
2022/07/07 00:07:13;;;;;;;6.63;4.53;;;;;;;;;;4996804;28;20201;-77
2022/07/07 00:09:41;;;;;;;6.43;4.67;;;;;;;;;;5003364;28;20275;-78
2022/07/07 00:12:11;;;;;;;7.00;4.60;;;;;;;;;;5007091;28;20205;-80
2022/07/07 00:14:39;;;;;;;6.70;5.10;;;;;;;;;;5008916;28;20231;-76
2022/07/07 00:17:08;;;;;;;6.90;4.57;;;;;;;;;;5007766;28;20216;-75
2022/07/07 00:19:36;;;;;;;5.77;4.60;;;;;;;;;;5006481;28;20212;-76
2022/07/07 00:22:05;;;;;;;6.10;4.80;;;;;;;;;;5003596;28;20225;-76
2022/07/07 00:24:34;;;;;;;7.77;5.13;;;;;;;;;;4992889;28;20208;-75
2022/07/07 00:27:02;;;;;;;5.73;5.07;;;;;;;;;;5005057;28;20268;-77
2022/07/07 00:29:32;;;;;;;5.50;4.93;;;;;;;;;;5005632;28;20220;-77
2022/07/07 00:32:00;;;;;;;8.37;5.80;;;;;;;;;;5009700;28;20213;-77
2022/07/07 00:34:29;;;;;;;6.00;5.40;;;;;;;;;;5010689;28;20212;-75
2022/07/07 00:36:57;;;;;;;6.73;5.70;;;;;;;;;;5011947;28;20208;-75
2022/07/07 00:39:26;;;;;;;7.33;5.70;;;;;;;;;;5010636;28;20205;-74
2022/07/07 00:41:54;;;;;;;7.17;6.30;;;;;;;;;;5010086;28;20229;-76
2022/07/07 00:44:23;;;;;;;6.27;5.67;;;;;;;;;;5012086;28;20208;-76
2022/07/07 00:46:54;;;;;;;9.20;6.37;;;;;;;;;;5011122;28;20305;-75
2022/07/07 00:49:23;;;;;;;9.87;7.23;;;;;;;;;;4998892;28;20201;-78
2022/07/07 00:51:51;;;;;;;7.87;6.97;;;;;;;;;;5009359;28;20647;-79
2022/07/07 00:54:20;;;;;;;8.87;7.13;;;;;;;;;;5011764;28;20212;-75
2022/07/07 00:56:48;;;;;;;9.57;7.40;;;;;;;;;;4992798;28;20213;-76
2022/07/07 00:59:36;;;;;;;9.00;7.77;;;;;;;;;;5003006;28;20224;-76
2022/07/07 01:02:07;;;;;;;10.63;8.40;;;;;;;;;;5011942;28;20316;-78
2022/07/07 01:04:36;;;;;;;13.90;8.70;;;;;;;;;;5007491;28;20709;-76
2022/07/07 01:07:04;;;;;;;8.93;8.03;;;;;;;;;;5009825;28;20681;-75
2022/07/07 01:09:33;;;;;;;11.63;8.80;;;;;;;;;;5009970;28;20209;-75
2022/07/07 01:12:01;;;;;;;12.53;8.97;;;;;;;;;;5009157;28;20205;-75
2022/07/07 01:14:30;;;;;;;12.77;8.90;;;;;;;;;;5009464;28;20204;-76
2022/07/07 01:16:58;;;;;;;12.23;9.47;;;;;;;;;;5007858;28;20244;-81
2022/07/07 01:19:28;;;;;;;12.33;9.70;;;;;;;;;;5007326;28;20209;-78
2022/07/07 01:21:58;;;;;;;10.83;9.70;;;;;;;;;;5009898;28;20745;-77
2022/07/07 01:24:29;;;;;;;11.80;9.13;;;;;;;;;;5006341;28;20256;-78
2022/07/07 01:27:05;;;;;;;11.47;9.23;;;;;;;;;;5006629;28;20197;-76
2022/07/07 01:29:35;;;;;;;11.27;9.03;;;;;;;;;;5007359;28;20712;-78
2022/07/07 01:32:04;;;;;;;10.77;9.03;;;;;;;;;;5008715;28;20213;-76
2022/07/07 01:34:33;;;;;;;10.37;8.87;;;;;;;;;;5006573;28;20205;-77
2022/07/07 01:37:01;;;;;;;11.67;9.83;;;;;;;;;;5006449;28;20201;-75
2022/07/07 01:39:31;;;;;;;11.70;9.57;;;;;;;;;;5006187;28;20677;-78
2022/07/07 01:42:00;;;;;;;11.40;9.70;;;;;;;;;;5006088;28;20255;-80
2022/07/07 01:44:31;;;;;;;10.50;9.50;;;;;;;;;;5006295;28;20344;-82
2022/07/07 01:46:59;;;;;;;13.07;9.10;;;;;;;;;;5007132;28;20189;-78
2022/07/07 01:49:29;;;;;;;10.27;9.13;;;;;;;;;;5005747;28;20205;-75
2022/07/07 01:51:58;;;;;;;13.33;9.17;;;;;;;;;;5005778;28;20241;-81
2022/07/07 01:54:27;;;;;;;11.93;9.30;;;;;;;;;;5004357;28;20205;-78
2022/07/07 01:56:57;;;;;;;11.90;9.13;;;;;;;;;;5004577;28;20205;-73
2022/07/07 01:59:25;;;;;;;9.37;8.27;;;;;;;;;;5006218;28;20209;-77
2022/07/07 02:01:54;;;;;;;8.63;7.83;;;;;;;;;;5004029;28;20252;-80
2022/07/07 02:04:22;;;;;;;10.77;8.30;;;;;;;;;;5007136;28;20217;-84
2022/07/07 02:06:51;;;;;;;13.53;8.87;;;;;;;;;;5007052;28;20224;-77
2022/07/07 02:09:19;;;;;;;9.13;8.17;;;;;;;;;;5006870;28;20647;-78
2022/07/07 02:11:48;;;;;;;8.67;7.63;;;;;;;;;;5005092;28;20201;-76
2022/07/07 02:14:17;;;;;;;12.83;8.60;;;;;;;;;;5006206;28;20252;-76
2022/07/07 02:16:46;;;;;;;10.43;7.93;;;;;;;;;;5006786;28;20252;-78
2022/07/07 02:19:15;;;;;;;12.17;8.90;;;;;;;;;;4992300;28;20288;-79
2022/07/07 02:21:43;;;;;;;11.70;9.20;;;;;;;;;;5003434;28;20252;-77
2022/07/07 02:24:12;;;;;;;10.70;8.73;;;;;;;;;;5006614;28;20219;-77
2022/07/07 02:26:40;;;;;;;9.50;8.57;;;;;;;;;;5005998;28;20229;-78
2022/07/07 02:29:09;;;;;;;9.63;8.53;;;;;;;;;;5006115;28;20212;-81
2022/07/07 02:31:39;;;;;;;11.73;9.00;;;;;;;;;;5005000;28;20207;-77
2022/07/07 02:34:09;;;;;;;8.83;8.03;;;;;;;;;;5006071;28;20563;-76
2022/07/07 02:36:37;;;;;;;11.53;8.63;;;;;;;;;;5006378;28;20630;-78
2022/07/07 02:39:06;;;;;;;9.70;8.63;;;;;;;;;;5005858;28;20216;-77
2022/07/07 02:41:34;;;;;;;9.50;8.50;;;;;;;;;;5006663;28;20284;-82
2022/07/07 02:44:03;;;;;;;10.30;9.30;;;;;;;;;;5006471;28;20205;-78
2022/07/07 02:46:34;;;;;;;9.47;8.53;;;;;;;;;;5006833;28;20236;-77
2022/07/07 02:49:04;;;;;;;11.07;8.87;;;;;;;;;;5006338;28;20197;-76
2022/07/07 02:51:32;;;;;;;10.20;9.17;;;;;;;;;;5005853;28;20229;-76
2022/07/07 02:54:01;;;;;;;9.70;8.80;;;;;;;;;;5005899;28;20205;-76
2022/07/07 02:56:29;;;;;;;9.70;8.70;;;;;;;;;;5005683;28;20267;-79
2022/07/07 02:58:58;;;;;;;9.90;8.73;;;;;;;;;;5005166;28;20716;-78
2022/07/07 03:01:26;;;;;;;12.27;9.43;;;;;;;;;;5005833;28;20594;-81
2022/07/07 03:03:55;;;;;;;10.50;9.07;;;;;;;;;;5005712;28;20219;-80
2022/07/07 03:06:25;;;;;;;9.80;8.90;;;;;;;;;;5006225;28;20232;-77
2022/07/07 03:08:53;;;;;;;10.53;9.10;;;;;;;;;;4998698;28;20209;-79
2022/07/07 03:11:22;;;;;;;9.90;8.90;;;;;;;;;;5008231;28;20205;-78
2022/07/07 03:13:50;;;;;;;11.57;9.63;;;;;;;;;;5007453;28;20209;-76
2022/07/07 03:16:19;;;;;;;12.80;10.17;;;;;;;;;;5009853;28;20636;-80
2022/07/07 03:18:47;;;;;;;13.77;10.37;;;;;;;;;;5005835;28;20685;-76
2022/07/07 03:21:16;;;;;;;11.87;10.53;;;;;;;;;;5007589;28;20228;-80
2022/07/07 03:23:45;;;;;;;12.80;11.50;;;;;;;;;;5007973;28;20547;-76
2022/07/07 03:26:14;;;;;;;12.07;10.87;;;;;;;;;;5009074;28;20229;-76
2022/07/07 03:28:42;;;;;;;13.80;11.93;;;;;;;;;;5007944;28;20232;-75
2022/07/07 03:31:11;;;;;;;13.13;11.77;;;;;;;;;;5007088;28;20220;-82
2022/07/07 03:33:39;;;;;;;13.43;12.10;;;;;;;;;;5006984;28;22185;-76
2022/07/07 03:36:08;;;;;;;16.07;12.73;;;;;;;;;;4992761;28;20230;-77
2022/07/07 03:38:36;;;;;;;15.20;13.40;;;;;;;;;;4998191;28;20232;-76
2022/07/07 03:41:06;;;;;;;16.00;14.33;;;;;;;;;;5007185;28;20201;-74
2022/07/07 03:43:35;;;;;;;15.30;13.70;;;;;;;;;;5005484;28;20202;-76
2022/07/07 03:46:04;;;;;;;17.63;15.20;;;;;;;;;;5003530;28;20225;-81
2022/07/07 03:48:32;;;;;;;16.57;14.30;;;;;;;;;;5003837;28;20233;-78
2022/07/07 03:51:00;;;;;;;16.90;15.07;;;;;;;;;;5004412;28;20217;-76
2022/07/07 03:53:29;;;;;;;17.50;15.17;;;;;;;;;;5004710;28;20201;-81
2022/07/07 03:55:58;;;;;;;16.73;15.13;;;;;;;;;;5003654;28;20237;-80
2022/07/07 03:58:28;;;;;;;18.67;15.20;;;;;;;;;;4996343;28;20216;-76
2022/07/07 04:00:56;;;;;;;17.77;15.27;;;;;;;;;;5004989;28;20207;-79
2022/07/07 04:03:25;;;;;;;16.80;14.87;;;;;;;;;;5002905;28;20229;-81
2022/07/07 04:05:54;;;;;;;19.97;15.47;;;;;;;;;;4990863;28;20602;-79
2022/07/07 04:08:22;;;;;;;17.77;15.00;;;;;;;;;;5005790;28;20209;-80
2022/07/07 04:10:51;;;;;;;16.80;15.10;;;;;;;;;;5006591;28;20361;-77
2022/07/07 04:13:20;;;;;;;17.03;15.27;;;;;;;;;;5008276;28;20212;-81
2022/07/07 04:15:50;;;;;;;18.53;15.90;;;;;;;;;;5006550;28;20232;-79
2022/07/07 04:18:18;;;;;;;17.20;15.43;;;;;;;;;;5005841;28;20597;-79
2022/07/07 04:20:47;;;;;;;17.30;14.90;;;;;;;;;;5000091;28;20265;-76
2022/07/07 04:23:15;;;;;;;18.60;16.60;;;;;;;;;;4985116;28;20229;-81
2022/07/07 04:25:44;;;;;;;17.27;15.57;;;;;;;;;;4984648;28;20229;-83
2022/07/07 04:28:12;;;;;;;18.47;16.33;;;;;;;;;;4989228;28;20345;-77
2022/07/07 04:30:41;;;;;;;18.40;16.27;;;;;;;;;;5004054;28;20216;-78
2022/07/07 04:33:11;;;;;;;18.40;16.40;;;;;;;;;;5002398;28;20212;-78
2022/07/07 04:35:39;;;;;;;17.67;15.77;;;;;;;;;;5002707;28;20221;-78
2022/07/07 04:38:08;;;;;;;18.50;16.57;;;;;;;;;;5005394;28;20260;-83
2022/07/07 04:40:36;;;;;;;18.40;16.47;;;;;;;;;;5007190;28;20220;-78
2022/07/07 04:43:05;;;;;;;18.13;16.30;;;;;;;;;;5005590;28;20229;-79
2022/07/07 04:45:33;;;;;;;19.20;17.10;;;;;;;;;;5006789;28;20275;-79
2022/07/07 04:48:02;;;;;;;18.40;16.57;;;;;;;;;;5005802;28;20212;-80
2022/07/07 04:50:31;;;;;;;18.63;16.73;;;;;;;;;;5006081;28;20575;-80
2022/07/07 04:53:00;;;;;;;20.20;17.93;;;;;;;;;;5007692;28;20201;-76
2022/07/07 04:55:28;;;;;;;19.00;17.07;;;;;;;;;;5006761;28;20327;-83
2022/07/07 04:57:57;;;;;;;19.97;18.00;;;;;;;;;;5005921;28;20268;-80
2022/07/07 05:00:25;;;;;;;19.73;17.63;;;;;;;;;;5004476;28;20205;-78
2022/07/07 05:02:53;;;;;;;20.80;18.13;;;;;;;;;;5004338;28;20217;-82
2022/07/07 05:05:22;;;;;;;20.07;17.50;;;;;;;;;;5004493;28;20601;-76
2022/07/07 05:07:52;;;;;;;19.50;17.50;;;;;;;;;;4989009;28;20229;-81
2022/07/07 05:10:20;;;;;;;18.67;16.80;;;;;;;;;;5003325;28;20201;-80
2022/07/07 05:12:52;;;;;;;19.47;17.47;;;;;;;;;;5007812;28;20201;-82
2022/07/07 05:15:20;;;;;;;20.77;18.30;;;;;;;;;;5005254;28;20229;-78
2022/07/07 05:17:49;;;;;;;20.87;18.73;;;;;;;;;;5000033;28;20209;-81
2022/07/07 05:20:25;;;;;;;21.03;18.83;;;;;;;;;;5001093;28;20197;-78
2022/07/07 05:23:01;;;;;;;20.80;18.60;;;;;;;;;;4999731;28;20709;-78
2022/07/07 05:25:30;;;;;;;21.60;19.23;;;;;;;;;;5001864;28;20231;-78
2022/07/07 05:27:58;;;;;;;20.33;18.13;;;;;;;;;;5002448;28;20259;-75
2022/07/07 05:30:26;;;;;;;19.87;17.97;;;;;;;;;;5001867;28;20232;-75
2022/07/07 05:32:55;;;;;;;19.27;17.30;;;;;;;;;;4999784;28;20201;-83
2022/07/07 05:35:24;;;;;;;18.63;16.83;;;;;;;;;;5001393;28;20229;-76
2022/07/07 05:37:52;;;;;;;19.63;17.73;;;;;;;;;;4999283;28;20275;-84
2022/07/07 05:40:22;;;;;;;18.10;16.13;;;;;;;;;;4998239;28;20255;-78
2022/07/07 05:42:50;;;;;;;16.60;14.90;;;;;;;;;;4997049;28;20228;-75
2022/07/07 05:45:21;;;;;;;15.87;14.40;;;;;;;;;;4998420;28;20225;-75
2022/07/07 05:47:50;;;;;;;16.70;15.00;;;;;;;;;;4998559;28;20204;-75
2022/07/07 05:50:18;;;;;;;15.77;14.20;;;;;;;;;;4998396;28;20206;-76
2022/07/07 05:52:47;;;;;;;15.57;13.97;;;;;;;;;;4998039;28;20205;-79
2022/07/07 05:55:15;;;;;;;14.17;12.77;;;;;;;;;;4982371;28;20218;-77
2022/07/07 05:57:45;;;;;;;15.23;13.67;;;;;;;;;;4978326;28;20610;-75
2022/07/07 06:00:14;;;;;;;14.03;12.83;;;;;;;;;;4991671;28;20209;-76
2022/07/07 06:02:42;;;;;;;12.60;11.50;;;;;;;;;;4997649;28;20212;-75
2022/07/07 06:05:11;;;;;;;11.50;10.30;;;;;;;;;;4997266;28;20316;-79
2022/07/07 06:07:39;;;;;;;13.47;11.10;;;;;;;;;;4997050;28;20193;-73
2022/07/07 06:10:10;;;;;;;10.23;9.20;;;;;;;;;;4996246;28;20712;-75
2022/07/07 06:12:38;;;;;;;9.80;8.77;;;;;;;;;;4996367;28;20193;-75
2022/07/07 06:15:09;;;;;;;10.73;9.63;;;;;;;;;;4995904;28;20239;-74
2022/07/07 06:17:41;;;;;;;9.80;8.90;;;;;;;;;;4995252;28;20189;-73
2022/07/07 06:20:29;;;;;;;10.57;9.40;;;;;;;;;;4995296;28;20232;-74
2022/07/07 06:22:58;;;;;;;10.67;9.63;;;;;;;;;;4995515;28;20225;-74
2022/07/07 06:25:27;;;;;;;9.87;8.93;;;;;;;;;;4996249;28;20229;-81
2022/07/07 06:28:00;;;;;;;9.73;8.83;;;;;;;;;;4997672;28;20235;-74
2022/07/07 06:30:30;;;;;;;10.57;9.50;;;;;;;;;;4994615;28;20189;-74
2022/07/07 06:32:59;;;;;;;9.30;8.50;;;;;;;;;;4995675;28;20205;-74
2022/07/07 06:35:27;;;;;;;9.43;8.43;;;;;;;;;;5003617;28;20231;-74
2022/07/07 06:37:57;;;;;;;9.30;8.40;;;;;;;;;;5001546;28;20205;-74
2022/07/07 06:40:26;;;;;;;9.00;8.20;;;;;;;;;;4996734;28;20597;-75
2022/07/07 06:42:54;;;;;;;8.80;8.00;;;;;;;;;;4998766;28;20231;-79
2022/07/07 06:45:23;;;;;;;8.87;7.00;;;;;;;;;;4999949;28;20217;-76
2022/07/07 06:47:53;;;;;;;7.07;6.40;;;;;;;;;;4996598;28;20297;-75
2022/07/07 06:50:25;;;;;;;7.07;6.37;;;;;;;;;;4994971;28;20576;-75
2022/07/07 06:52:54;;;;;;;5.87;5.20;;;;;;;;;;4994286;28;20207;-74
2022/07/07 06:55:22;;;;;;;5.50;5.00;;;;;;;;;;4994606;28;20225;-74
2022/07/07 06:57:50;;;;;;;5.30;4.80;;;;;;;;;;4994230;28;20208;-74
2022/07/07 07:00:19;;;;;;;5.50;5.00;;;;;;;;;;4994445;28;20200;-74
2022/07/07 07:02:48;;;;;;;4.73;4.30;;;;;;;;;;4995148;28;20203;-75
2022/07/07 07:05:19;;;;;;;5.17;3.80;;;;;;;;;;4991407;28;20240;-73
2022/07/07 07:07:48;;;;;;;4.70;3.93;;;;;;;;;;4994865;28;20225;-75
2022/07/07 07:10:16;;;;;;;3.87;3.57;;;;;;;;;;4995027;28;20612;-74
2022/07/07 07:12:45;;;;;;;4.23;3.90;;;;;;;;;;4994880;28;20212;-74
2022/07/07 07:15:13;;;;;;;4.10;3.70;;;;;;;;;;4994931;28;20229;-74
2022/07/07 07:17:43;;;;;;;3.77;3.37;;;;;;;;;;4994426;28;20201;-74
2022/07/07 07:20:20;;;;;;;2.53;2.00;;;;;;;;;;4985418;28;20204;-74
2022/07/07 07:22:48;;;;;;;4.20;2.30;;;;;;;;;;4994452;28;20260;-74
2022/07/07 07:25:18;;;;;;;2.50;2.30;;;;;;;;;;4994595;28;20236;-75
2022/07/07 07:27:47;;;;;;;2.60;2.40;;;;;;;;;;4994186;28;20193;-74
2022/07/07 07:30:16;;;;;;;2.40;2.20;;;;;;;;;;4993628;28;20279;-74
2022/07/07 07:32:44;;;;;;;2.10;1.80;;;;;;;;;;4994695;28;20215;-74
2022/07/07 07:35:13;;;;;;;2.70;2.00;;;;;;;;;;4993850;28;20232;-73
2022/07/07 07:37:43;;;;;;;2.30;1.90;;;;;;;;;;4994026;28;20577;-74
2022/07/07 07:40:12;;;;;;;2.50;1.70;;;;;;;;;;4993884;28;20212;-74
2022/07/07 07:42:47;;;;;;;2.43;1.70;;;;;;;;;;4996201;28;20582;-74
2022/07/07 07:45:16;;;;;;;2.53;1.80;;;;;;;;;;4993243;28;20236;-74
2022/07/07 07:47:45;;;;;;;1.90;1.67;;;;;;;;;;4993434;28;20260;-73
2022/07/07 07:50:15;;;;;;;2.33;1.90;;;;;;;;;;4993158;28;20212;-73
2022/07/07 07:52:45;;;;;;;2.63;1.50;;;;;;;;;;4994088;28;20212;-73
2022/07/07 07:55:14;;;;;;;1.70;1.50;;;;;;;;;;4993850;28;20303;-73
2022/07/07 07:57:43;;;;;;;2.43;1.70;;;;;;;;;;4993869;28;20578;-74
2022/07/07 08:00:13;;;;;;;3.00;1.80;;;;;;;;;;4993282;28;20626;-74
2022/07/07 08:02:42;;;;;;;2.43;1.47;;;;;;;;;;4993796;28;20197;-74
2022/07/07 08:05:11;;;;;;;1.30;1.20;;;;;;;;;;4992873;28;20236;-74
2022/07/07 08:07:43;;;;;;;2.07;1.00;;;;;;;;;;4994220;28;20211;-74
2022/07/07 08:10:13;;;;;;;2.40;1.43;;;;;;;;;;4993882;28;20552;-74
2022/07/07 08:12:47;;;;;;;2.60;1.20;;;;;;;;;;4993895;28;20658;-73
2022/07/07 08:15:18;;;;;;;1.70;1.10;;;;;;;;;;4993241;28;20229;-75
2022/07/07 08:20:30;;;;;;;1.80;1.00;;;;;;;;;;4992893;28;20583;-74
2022/07/07 08:22:58;;;;;;;1.60;1.20;;;;;;;;;;4994106;28;20267;-75
2022/07/07 08:25:28;;;;;;;1.03;0.93;;;;;;;;;;4991464;28;20639;-74
2022/07/07 08:27:57;;;;;;;1.20;1.07;;;;;;;;;;4974751;28;20605;-75
2022/07/07 08:30:25;;;;;;;0.90;0.90;;;;;;;;;;4989137;28;20205;-75
2022/07/07 08:32:53;;;;;;;1.73;1.20;;;;;;;;;;4998819;28;20205;-76
2022/07/07 08:35:22;;;;;;;2.70;1.43;;;;;;;;;;4992632;28;20228;-77
2022/07/07 08:37:50;;;;;;;2.33;1.20;;;;;;;;;;4998611;28;20287;-73
2022/07/07 08:40:19;;;;;;;2.83;1.40;;;;;;;;;;4995102;28;20205;-75
2022/07/07 08:42:49;;;;;;;1.97;1.47;;;;;;;;;;4993623;28;20689;-74
2022/07/07 08:45:18;;;;;;;2.40;1.20;;;;;;;;;;4991962;28;20724;-74
2022/07/07 08:47:46;;;;;;;3.37;1.57;;;;;;;;;;4988273;28;20240;-74
2022/07/07 08:50:16;;;;;;;2.67;1.40;;;;;;;;;;4997600;28;20211;-74
2022/07/07 08:52:47;;;;;;;2.60;1.30;;;;;;;;;;4993948;28;20213;-73
2022/07/07 08:55:16;;;;;;;3.30;1.40;;;;;;;;;;4997018;28;20496;-74
2022/07/07 08:57:45;;;;;;;2.13;1.30;;;;;;;;;;4997559;28;20204;-74
2022/07/07 09:02:58;;;;;;;1.47;1.23;;;;;;;;;;4988849;28;20674;-76
2022/07/07 09:05:27;;;;;;;1.93;1.30;;;;;;;;;;4998727;28;20233;-79
2022/07/07 09:07:56;;;;;;;1.83;1.27;;;;;;;;;;5000197;28;20205;-77
2022/07/07 09:10:31;;;;;;;2.50;1.20;;;;;;;;;;4997185;28;20233;-77
2022/07/07 09:13:00;;;;;;;2.57;1.20;;;;;;;;;;4996203;28;20216;-78
2022/07/07 09:15:38;;;;;;;3.20;1.50;;;;;;;;;;5002551;28;20565;-79
2022/07/07 09:18:07;;;;;;;4.10;1.63;;;;;;;;;;5002550;28;20208;-75
2022/07/07 09:20:37;;;;;;;2.13;1.70;;;;;;;;;;5003087;28;20201;-77
2022/07/07 09:23:14;;;;;;;2.07;1.80;;;;;;;;;;5000682;28;20224;-75
2022/07/07 09:25:43;;;;;;;2.53;1.90;;;;;;;;;;4999060;28;20225;-75
2022/07/07 09:28:12;;;;;;;4.33;1.90;;;;;;;;;;4997868;28;20209;-76
2022/07/07 09:30:43;;;;;;;2.03;1.90;;;;;;;;;;4992583;28;20198;-75
2022/07/07 09:33:12;;;;;;;2.30;2.10;;;;;;;;;;4997319;28;20201;-78
2022/07/07 09:41:27;;;;;;;2.63;2.20;;;;;;;;;;4999066;28;20549;-77
2022/07/07 09:43:56;;;;;;;2.33;2.20;;;;;;;;;;4999050;28;20239;-75
2022/07/07 09:46:28;;;;;;;3.27;2.60;;;;;;;;;;4999932;28;20236;-79
2022/07/07 09:48:57;;;;;;;5.53;2.30;;;;;;;;;;4995949;28;20269;-80
2022/07/07 09:51:27;;;;;;;2.70;2.50;;;;;;;;;;5000504;28;20205;-77
2022/07/07 09:53:56;;;;;;;4.77;3.10;;;;;;;;;;4997566;28;20261;-77
2022/07/07 09:56:27;;;;;;;3.57;3.00;;;;;;;;;;4995200;28;20222;-75
2022/07/07 09:58:56;;;;;;;3.53;3.23;;;;;;;;;;4996875;28;20754;-74
2022/07/07 10:01:28;;;;;;;5.83;4.40;;;;;;;;;;4991310;28;20205;-77
2022/07/07 10:03:58;;;;;;;6.03;3.70;;;;;;;;;;4992667;28;20247;-80
2022/07/07 10:06:28;;;;;;;4.53;3.37;;;;;;;;;;4998837;28;20297;-76
2022/07/07 10:08:58;;;;;;;4.10;3.70;;;;;;;;;;4994939;28;20217;-75
2022/07/07 10:11:31;;;;;;;6.20;3.80;;;;;;;;;;4994963;28;20197;-74
2022/07/07 10:14:04;;;;;;;7.00;3.77;;;;;;;;;;4992100;28;20692;-75
2022/07/07 10:16:37;;;;;;;4.60;3.97;;;;;;;;;;4986541;28;20313;-74
2022/07/07 10:19:07;;;;;;;4.73;3.93;;;;;;;;;;4995290;28;20662;-74
2022/07/07 10:21:37;;;;;;;6.60;3.93;;;;;;;;;;4993457;28;20201;-74
2022/07/07 10:24:08;;;;;;;6.33;3.83;;;;;;;;;;4994128;28;20211;-74
2022/07/07 10:26:38;;;;;;;5.33;3.50;;;;;;;;;;4990090;28;20246;-75
2022/07/07 10:29:08;;;;;;;4.90;3.50;;;;;;;;;;4988859;28;20263;-74
2022/07/07 10:31:39;;;;;;;6.20;3.15;;;;;;;;;;4989653;28;20267;-74
2022/07/07 10:34:11;;;;;;;3.50;2.63;;;;;;;;;;4993373;28;20201;-74
2022/07/07 10:36:59;;;;;;;4.03;2.60;;;;;;;;;;4994962;28;20221;-76
2022/07/07 10:39:29;;;;;;;2.73;2.10;;;;;;;;;;4995784;28;20256;-76
2022/07/07 10:42:01;;;;;;;3.43;2.13;;;;;;;;;;4996731;28;20263;-75
2022/07/07 10:44:30;;;;;;;5.30;2.70;;;;;;;;;;4988066;28;20197;-74
2022/07/07 10:47:03;;;;;;;3.87;2.60;;;;;;;;;;4993322;28;20229;-74
2022/07/07 10:49:39;;;;;;;4.17;2.10;;;;;;;;;;4992343;28;20258;-74
2022/07/07 10:52:18;;;;;;;3.65;2.00;;;;;;;;;;4983022;28;20205;-75
2022/07/07 10:54:51;;;;;;;3.47;1.90;;;;;;;;;;4994328;28;20354;-75
2022/07/07 10:57:21;;;;;;;5.27;1.97;;;;;;;;;;4986793;28;20198;-74
2022/07/07 11:00:20;;;;;;;2.13;1.60;;;;;;;;;;4990883;28;20213;-74
2022/07/07 11:02:52;;;;;;;1.43;1.30;;;;;;;;;;4953068;28;20233;-74
2022/07/07 11:05:34;;;;;;;1.60;1.30;;;;;;;;;;4987490;28;20649;-74
2022/07/07 11:08:07;;;;;;;1.80;1.23;;;;;;;;;;4975876;28;20201;-74
2022/07/07 11:10:52;;;;;;;3.15;1.98;;;;;;;;;;4982915;28;20227;-74
2022/07/07 11:13:22;;;;;;;4.55;1.90;;;;;;;;;;4994522;28;20205;-74
2022/07/07 11:16:10;;;;;;;4.05;2.17;;;;;;;;;;4992069;28;20221;-73
2022/07/07 11:18:41;;;;;;;5.80;1.90;;;;;;;;;;4994166;28;20193;-73
2022/07/07 11:21:10;;;;;;;2.35;1.90;;;;;;;;;;4993644;28;20237;-74
2022/07/07 11:23:47;;;;;;;3.78;1.85;;;;;;;;;;4994034;28;20699;-73
2022/07/07 11:26:19;;;;;;;4.13;1.85;;;;;;;;;;4993957;28;20217;-73
2022/07/07 11:28:53;;;;;;;4.70;1.80;;;;;;;;;;4995621;28;20208;-73
2022/07/07 11:31:21;;;;;;;6.18;1.75;;;;;;;;;;4994314;28;20654;-74
2022/07/07 11:33:52;;;;;;;2.92;1.60;;;;;;;;;;4992221;28;20197;-73
2022/07/07 11:36:21;;;;;;;6.95;2.42;;;;;;;;;;4988413;28;20218;-73
2022/07/07 11:38:52;;;;;;;5.32;2.20;;;;;;;;;;4988724;28;20288;-73
2022/07/07 11:41:21;;;;;;;4.57;2.30;;;;;;;;;;4990940;28;20204;-73
2022/07/07 11:43:56;;;;;;;3.85;1.90;;;;;;;;;;4992158;28;20259;-73
2022/07/07 11:46:26;;;;;;;5.63;2.10;;;;;;;;;;4990426;28;20262;-74
2022/07/07 11:48:57;;;;;;;3.22;1.80;;;;;;;;;;4986916;28;20228;-73
2022/07/07 11:51:30;;;;;;;3.08;1.73;;;;;;;;;;4993228;28;20213;-74
2022/07/07 11:54:00;;;;;;;4.63;1.90;;;;;;;;;;4993541;28;20205;-74
2022/07/07 11:56:29;;;;;;;4.22;1.95;;;;;;;;;;4987896;28;20287;-74
2022/07/07 11:59:00;;;;;;;6.00;1.88;;;;;;;;;;4991402;28;20658;-74
2022/07/07 12:01:36;;;;;;;3.17;1.63;;;;;;;;;;4992773;28;20655;-74
2022/07/07 12:04:15;;;;;;;3.85;1.80;;;;;;;;;;4991989;28;20263;-73
2022/07/07 12:06:45;;;;;;;4.68;1.80;;;;;;;;;;4988673;28;20236;-73
2022/07/07 12:09:16;;;;;;;4.03;1.80;;;;;;;;;;4993236;28;20233;-74
2022/07/07 12:11:45;;;;;;;5.35;1.73;;;;;;;;;;4993751;28;20198;-73
2022/07/07 12:14:14;;;;;;;4.63;1.90;;;;;;;;;;4991204;28;20288;-73
2022/07/07 12:16:47;;;;;;;4.68;2.00;;;;;;;;;;4988461;28;20218;-74
2022/07/07 12:19:23;;;;;;;3.47;1.90;;;;;;;;;;4990860;28;20197;-72
2022/07/07 12:21:54;;;;;;;3.67;2.05;;;;;;;;;;4993886;28;20193;-72
2022/07/07 12:24:23;;;;;;;6.18;1.98;;;;;;;;;;4993005;28;20232;-73
2022/07/07 12:27:17;;;;;;;5.93;2.10;;;;;;;;;;4991922;28;20267;-73
2022/07/07 12:29:59;;;;;;;4.03;1.77;;;;;;;;;;4989939;28;20654;-73
2022/07/07 12:32:28;;;;;;;5.50;1.80;;;;;;;;;;4995345;28;20208;-72
2022/07/07 12:34:58;;;;;;;3.70;1.85;;;;;;;;;;4995973;28;20611;-73
2022/07/07 12:37:41;;;;;;;3.58;1.70;;;;;;;;;;4986924;28;20205;-74
2022/07/07 12:40:10;;;;;;;6.45;1.95;;;;;;;;;;4992113;28;20232;-73
2022/07/07 12:42:39;;;;;;;5.13;1.73;;;;;;;;;;5002859;28;20209;-73
2022/07/07 12:45:12;;;;;;;3.80;1.67;;;;;;;;;;4994608;28;20257;-74
2022/07/07 12:47:46;;;;;;;3.70;1.60;;;;;;;;;;4993790;28;20272;-72
2022/07/07 12:50:16;;;;;;;3.83;1.52;;;;;;;;;;4991537;28;20628;-71
2022/07/07 12:52:55;;;;;;;2.03;1.25;;;;;;;;;;4994790;28;20659;-73
2022/07/07 12:55:23;;;;;;;3.15;1.42;;;;;;;;;;4992834;28;20248;-73
2022/07/07 12:57:58;;;;;;;4.45;1.83;;;;;;;;;;4995839;28;20288;-74
2022/07/07 13:00:27;;;;;;;13.65;2.20;;;;;;;;;;4993676;28;20240;-73
2022/07/07 13:02:56;;;;;;;6.35;1.63;;;;;;;;;;4991818;28;20216;-73
2022/07/07 13:05:25;;;;;;;2.35;1.02;;;;;;;;;;5003963;28;20228;-73
2022/07/07 13:07:54;;;;;;;1.63;1.10;;;;;;;;;;4991007;28;20585;-72
2022/07/07 13:10:24;;;;;;;8.82;1.30;;;;;;;;;;4992742;28;20264;-73
2022/07/07 13:12:55;;;;;;;1.25;0.98;;;;;;;;;;4996494;28;20201;-73
2022/07/07 13:15:24;;;;;;;2.55;1.00;;;;;;;;;;4992390;28;20224;-73
2022/07/07 13:17:53;;;;;;;7.95;1.60;;;;;;;;;;4989979;28;20205;-73
2022/07/07 13:20:22;;;;;;;4.43;1.30;;;;;;;;;;4995342;28;20204;-71
2022/07/07 13:22:55;;;;;;;0.93;0.93;;;;;;;;;;4995126;28;20373;-72
2022/07/07 13:25:23;;;;;;;4.20;0.90;;;;;;;;;;4988047;28;20273;-72
2022/07/07 13:27:52;;;;;;;1.77;1.10;;;;;;;;;;4977527;28;20562;-72
2022/07/07 13:30:20;;;;;;;2.15;1.10;;;;;;;;;;4992894;28;20214;-72
2022/07/07 13:32:49;;;;;;;1.77;1.20;;;;;;;;;;4996107;28;20256;-73
2022/07/07 13:35:19;;;;;;;3.28;1.92;;;;;;;;;;4991317;28;20222;-74
2022/07/07 13:37:47;;;;;;;4.18;1.50;;;;;;;;;;4988362;28;20206;-73
2022/07/07 13:40:18;;;;;;;2.38;1.55;;;;;;;;;;4991169;28;20209;-74
2022/07/07 13:42:55;;;;;;;3.05;1.45;;;;;;;;;;4992413;28;20223;-72
2022/07/07 13:45:24;;;;;;;2.75;1.40;;;;;;;;;;4995890;28;20589;-74
2022/07/07 13:47:53;;;;;;;2.95;1.55;;;;;;;;;;4996312;28;20224;-73
2022/07/07 13:50:23;;;;;;;3.23;1.70;;;;;;;;;;4997382;28;20205;-74
2022/07/07 13:52:54;;;;;;;3.33;1.70;;;;;;;;;;4992490;28;20670;-73
2022/07/07 13:55:24;;;;;;;4.27;2.07;;;;;;;;;;4994020;28;20225;-74
2022/07/07 13:57:53;;;;;;;2.90;1.80;;;;;;;;;;4993704;28;20204;-73
2022/07/07 14:00:21;;;;;;;2.80;2.20;;;;;;;;;;4992814;28;20255;-74
2022/07/07 14:02:50;;;;;;;5.70;2.43;;;;;;;;;;4992639;28;20632;-73
2022/07/07 14:05:20;;;;;;;3.87;2.20;;;;;;;;;;4990491;28;20221;-73
2022/07/07 14:07:52;;;;;;;4.20;2.40;;;;;;;;;;4998266;28;20220;-73
2022/07/07 14:10:21;;;;;;;3.13;1.97;;;;;;;;;;5005119;28;20201;-73
2022/07/07 14:12:50;;;;;;;6.05;2.58;;;;;;;;;;4994292;28;20597;-73
2022/07/07 14:15:19;;;;;;;7.90;2.77;;;;;;;;;;4997998;28;20623;-73
2022/07/07 14:17:48;;;;;;;3.90;2.37;;;;;;;;;;4986934;28;20662;-75
2022/07/07 14:20:17;;;;;;;8.40;2.70;;;;;;;;;;4988584;28;20293;-75
2022/07/07 14:22:46;;;;;;;7.60;2.53;;;;;;;;;;4993733;28;20211;-76
2022/07/07 14:25:15;;;;;;;10.77;2.60;;;;;;;;;;4994754;28;20236;-75
2022/07/07 14:27:43;;;;;;;10.03;2.90;;;;;;;;;;4995257;28;20632;-75
2022/07/07 14:30:13;;;;;;;5.90;2.70;;;;;;;;;;4994344;28;20582;-76
2022/07/07 14:32:42;;;;;;;6.88;2.78;;;;;;;;;;4993791;28;20201;-74
2022/07/07 14:35:10;;;;;;;13.48;3.53;;;;;;;;;;4990041;28;20693;-75
2022/07/07 14:37:39;;;;;;;6.07;2.67;;;;;;;;;;4994039;28;20219;-75
2022/07/07 14:40:08;;;;;;;7.40;2.80;;;;;;;;;;4994255;28;20605;-74
2022/07/07 14:42:36;;;;;;;8.25;2.80;;;;;;;;;;4994013;28;20205;-76
2022/07/07 14:45:05;;;;;;;7.15;2.70;;;;;;;;;;4992941;28;20229;-75
2022/07/07 14:47:35;;;;;;;11.65;2.67;;;;;;;;;;4994749;28;20678;-76
2022/07/07 14:50:04;;;;;;;13.15;2.53;;;;;;;;;;4994913;28;20205;-73
2022/07/07 14:52:33;;;;;;;9.38;2.55;;;;;;;;;;4994437;28;20201;-82
2022/07/07 14:55:01;;;;;;;7.90;2.67;;;;;;;;;;4996872;28;20292;-83
2022/07/07 14:57:30;;;;;;;10.30;2.50;;;;;;;;;;4997961;28;20202;-75
2022/07/07 14:59:58;;;;;;;9.53;2.50;;;;;;;;;;4992542;28;20205;-77
2022/07/07 15:02:27;;;;;;;9.47;2.47;;;;;;;;;;4987864;28;20205;-75
2022/07/07 15:04:57;;;;;;;10.43;2.50;;;;;;;;;;4993911;28;20716;-76